Time;durP1;ratioP1;P1;durP2;ratioP2;P2;SDS_P1;SDS_P2;PMS_P1;PMS_P2;Temp;Humidity;BMP_temperature;BMP_pressure;BME280_temperature;BME280_humidity;BME280_pressure;Samples;Min_cycle;Max_cycle;Signal;HPM_P1;HPM_P2
2023/04/14 00:02:41;;;;;;;2.90;0.80;;;;;;;19.14;41.19;100781.75;16121102;19;130632;-42
2023/04/14 00:08:04;;;;;;;2.45;0.80;;;;;;;19.11;40.92;100785.03;16121042;19;129592;-45
2023/04/14 00:13:26;;;;;;;1.90;0.45;;;;;;;19.08;41.39;100787.19;16123392;19;130911;-42
2023/04/14 00:18:48;;;;;;;2.08;0.52;;;;;;;19.07;41.03;100787.47;16123044;19;130761;-43
2023/04/14 00:24:10;;;;;;;1.70;0.50;;;;;;;19.05;41.28;100796.06;16123131;19;129416;-42
2023/04/14 00:29:32;;;;;;;2.40;0.60;;;;;;;19.03;41.40;100797.38;16120294;19;132104;-43
2023/04/14 00:34:55;;;;;;;1.98;1.10;;;;;;;19.01;40.95;100803.19;16115604;19;131323;-45
2023/04/14 00:40:17;;;;;;;1.98;0.70;;;;;;;18.99;41.22;100794.28;16118504;19;131004;-42
2023/04/14 00:45:44;;;;;;;1.73;0.60;;;;;;;18.99;40.88;100782.34;16119434;19;129647;-44
2023/04/14 00:51:07;;;;;;;1.35;0.57;;;;;;;18.96;41.13;100797.53;16117938;19;133716;-42
2023/04/14 00:56:30;;;;;;;1.63;0.52;;;;;;;18.94;41.11;100799.75;16121353;19;129708;-45
2023/04/14 01:01:52;;;;;;;1.25;0.47;;;;;;;18.93;40.99;100795.28;16114348;19;129904;-45
2023/04/14 01:07:14;;;;;;;5.00;0.55;;;;;;;18.90;41.26;100788.28;16121249;19;130409;-45
2023/04/14 01:13:05;;;;;;;1.48;0.50;;;;;;;18.90;40.96;100795.78;16116277;19;130343;-43
2023/04/14 01:18:33;;;;;;;1.60;0.40;;;;;;;18.88;41.00;100809.06;16118312;19;133109;-43
2023/04/14 01:24:22;;;;;;;1.73;0.30;;;;;;;18.87;41.04;100807.38;16113220;19;131324;-43
2023/04/14 01:30:09;;;;;;;2.33;0.40;;;;;;;18.84;40.92;100797.63;16120287;19;131094;-45
2023/04/14 01:35:44;;;;;;;1.08;0.32;;;;;;;18.83;40.92;100793.19;16115835;19;130919;-45
2023/04/14 01:41:08;;;;;;;0.95;0.47;;;;;;;18.81;41.07;100797.31;16111746;19;131433;-46
2023/04/14 01:46:33;;;;;;;0.63;0.30;;;;;;;18.79;41.07;100796.72;16113264;19;131790;-44
2023/04/14 01:51:55;;;;;;;1.47;0.57;;;;;;;18.77;40.76;100800.56;16112372;19;131666;-45
2023/04/14 01:57:21;;;;;;;0.60;0.30;;;;;;;18.75;41.12;100797.19;16112823;19;130485;-43
2023/04/14 02:02:46;;;;;;;1.42;0.45;;;;;;;18.75;41.17;100797.19;16111408;19;129281;-46
2023/04/14 02:08:12;;;;;;;1.42;0.50;;;;;;;18.74;41.17;100806.59;16111912;19;129585;-43
2023/04/14 02:13:34;;;;;;;1.67;0.50;;;;;;;18.71;41.10;100807.09;16114044;19;129589;-43
2023/04/14 02:18:58;;;;;;;1.63;0.60;;;;;;;18.71;40.82;100806.25;16115761;19;130446;-45
2023/04/14 02:24:23;;;;;;;1.20;0.50;;;;;;;18.70;40.98;100796.28;16111280;19;130889;-43
2023/04/14 02:29:52;;;;;;;0.88;0.38;;;;;;;18.70;40.63;100801.81;16117450;19;129753;-44
2023/04/14 02:35:17;;;;;;;0.55;0.30;;;;;;;18.68;40.83;100801.22;16113507;19;130832;-42
2023/04/14 02:40:41;;;;;;;0.43;0.30;;;;;;;18.65;40.64;100790.63;16112534;19;130880;-42
2023/04/14 02:46:05;;;;;;;0.35;0.35;;;;;;;18.65;40.62;100794.25;16112362;19;129754;-43
2023/04/14 02:51:28;;;;;;;0.40;0.40;;;;;;;18.63;40.58;100793.66;16111734;19;130202;-44
2023/04/14 02:56:50;;;;;;;1.05;0.50;;;;;;;18.63;40.72;100792.84;16115512;19;129544;-44
2023/04/14 03:02:14;;;;;;;0.50;0.40;;;;;;;18.61;41.00;100809.69;16110492;19;130986;-42
2023/04/14 03:07:37;;;;;;;1.70;0.80;;;;;;;18.59;40.78;100817.41;16110909;19;129827;-43
2023/04/14 03:13:02;;;;;;;0.80;0.30;;;;;;;18.57;40.53;100823.19;16112790;19;131326;-46
2023/04/14 03:18:25;;;;;;;0.55;0.30;;;;;;;18.56;40.81;100815.16;16112762;19;129097;-43
2023/04/14 03:23:51;;;;;;;1.00;0.40;;;;;;;18.56;40.59;100812.38;16126880;19;129595;-44
2023/04/14 03:29:15;;;;;;;0.30;0.30;;;;;;;18.54;40.57;100809.00;16128724;19;131316;-52
2023/04/14 03:34:41;;;;;;;0.38;0.38;;;;;;;18.52;40.63;100813.97;16125962;19;129074;-42
2023/04/14 03:40:06;;;;;;;0.40;0.25;;;;;;;18.51;40.81;100826.13;16128433;19;129536;-45
2023/04/14 03:45:28;;;;;;;0.83;0.40;;;;;;;18.49;40.78;100825.53;16124029;19;131164;-43
2023/04/14 03:50:53;;;;;;;1.20;0.43;;;;;;;18.48;40.51;100830.25;16121859;19;130454;-46
2023/04/14 03:56:16;;;;;;;0.95;0.40;;;;;;;18.47;40.57;100825.78;16120955;19;131040;-45
2023/04/14 04:01:40;;;;;;;0.70;0.45;;;;;;;18.44;40.65;100829.91;16121521;19;130336;-42
2023/04/14 04:07:03;;;;;;;0.63;0.30;;;;;;;18.44;40.65;100832.66;16122918;19;130735;-42
2023/04/14 04:12:26;;;;;;;0.60;0.30;;;;;;;18.42;40.74;100831.22;16119755;19;130173;-42
2023/04/14 04:17:50;;;;;;;0.80;0.50;;;;;;;18.41;40.36;100835.94;16120902;19;129244;-42
2023/04/14 04:23:15;;;;;;;1.33;0.30;;;;;;;18.39;40.32;100826.16;16123020;19;130091;-44
2023/04/14 04:28:39;;;;;;;;;;;;;;;18.34;40.32;100829.63;16122793;19;130563;-42
2023/04/14 04:34:02;;;;;;;0.63;0.50;;;;;;;18.35;40.28;100823.03;16120302;19;129429;-44
2023/04/14 04:39:25;;;;;;;0.75;0.40;;;;;;;18.33;40.71;100822.44;16120717;19;130912;-42
2023/04/14 04:44:46;;;;;;;0.52;0.35;;;;;;;18.32;40.75;100831.84;16120529;19;130831;-45
2023/04/14 04:50:09;;;;;;;1.00;0.50;;;;;;;18.31;40.26;100822.69;16115511;19;131600;-48
2023/04/14 04:55:31;;;;;;;1.02;0.50;;;;;;;18.29;40.77;100826.78;16120445;19;131327;-44
2023/04/14 05:00:53;;;;;;;0.65;0.40;;;;;;;18.29;40.43;100821.25;16116037;19;132156;-45
2023/04/14 05:06:15;;;;;;;0.38;0.30;;;;;;;18.27;40.55;100824.28;16115658;19;129247;-42
2023/04/14 05:11:37;;;;;;;0.60;0.40;;;;;;;18.48;40.47;100821.06;16121699;19;129569;-42
2023/04/14 05:16:59;;;;;;;0.50;0.30;;;;;;;18.84;40.15;100822.56;16111537;19;130589;-43
2023/04/14 05:22:21;;;;;;;1.27;0.38;;;;;;;19.20;39.66;100814.03;16114842;19;130347;-42
2023/04/14 05:27:42;;;;;;;11.05;1.10;;;;;;;19.36;39.28;100815.97;16118125;19;129387;-42
2023/04/14 05:33:04;;;;;;;5.75;1.10;;;;;;;19.45;39.05;100821.06;16121008;19;130085;-41
2023/04/14 05:38:27;;;;;;;6.55;1.00;;;;;;;19.48;38.72;100826.13;16118009;19;130338;-43
2023/04/14 05:43:49;;;;;;;14.00;1.20;;;;;;;19.50;38.67;100829.47;16113433;19;130853;-43
2023/04/14 05:49:11;;;;;;;12.85;1.35;;;;;;;19.49;38.68;100833.34;16114522;19;132059;-41
2023/04/14 05:54:33;;;;;;;3.95;1.40;;;;;;;19.43;38.82;100824.09;16113017;19;130671;-41
2023/04/14 05:59:55;;;;;;;16.25;1.20;;;;;;;19.37;38.94;100827.91;16112936;19;130268;-42
2023/04/14 06:05:18;;;;;;;10.45;1.15;;;;;;;19.29;38.55;100831.94;16120343;19;130565;-44
2023/04/14 06:10:40;;;;;;;20.17;1.50;;;;;;;19.23;38.63;100835.72;16116856;19;132063;-41
2023/04/14 06:16:02;;;;;;;10.88;1.73;;;;;;;19.17;38.57;100836.72;16120687;19;130010;-41
2023/04/14 06:21:24;;;;;;;13.77;1.40;;;;;;;19.17;38.48;100829.22;16118069;19;129903;-41
2023/04/14 06:26:46;;;;;;;10.18;1.48;;;;;;;19.16;38.93;100818.41;16120967;19;135006;-40
2023/04/14 06:32:08;;;;;;;6.85;1.60;;;;;;;19.14;38.64;100818.63;16120725;19;131138;-42
2023/04/14 06:37:31;;;;;;;14.07;1.55;;;;;;;19.17;38.71;100815.34;16116865;19;130853;-43
2023/04/14 06:42:53;;;;;;;7.95;1.40;;;;;;;19.22;38.69;100807.16;16117822;19;131104;-42
2023/04/14 06:48:14;;;;;;;10.98;1.52;;;;;;;19.25;38.72;100804.97;16117357;19;129539;-44
2023/04/14 06:53:37;;;;;;;7.40;1.50;;;;;;;19.32;38.06;100803.69;16110232;19;130290;-42
2023/04/14 06:58:59;;;;;;;11.82;1.80;;;;;;;19.45;36.79;100798.88;16115460;19;131036;-45
2023/04/14 07:04:21;;;;;;;11.30;1.60;;;;;;;19.58;36.98;100800.47;16114322;19;129564;-41
2023/04/14 07:09:43;;;;;;;16.40;1.80;;;;;;;19.72;36.93;100801.78;16114587;19;129604;-41
2023/04/14 07:15:06;;;;;;;27.48;2.72;;;;;;;19.79;37.07;100791.31;16118020;19;129785;-45
2023/04/14 07:20:28;;;;;;;25.00;3.15;;;;;;;19.96;36.71;100788.47;16114966;19;129356;-42
2023/04/14 07:25:56;;;;;;;36.95;3.67;;;;;;;20.19;37.07;100788.47;16116201;19;129575;-43
2023/04/14 07:31:17;;;;;;;56.58;5.70;;;;;;;20.30;36.83;100793.06;16114426;19;129540;-42
2023/04/14 07:36:39;;;;;;;35.67;3.45;;;;;;;20.37;36.72;100781.72;16115430;19;129786;-45
2023/04/14 07:42:01;;;;;;;37.28;3.40;;;;;;;20.42;36.72;100774.28;16113282;19;133719;-42
2023/04/14 07:47:23;;;;;;;38.33;3.47;;;;;;;20.62;36.64;100770.03;16113109;19;129664;-43
2023/04/14 07:52:45;;;;;;;28.55;3.30;;;;;;;20.95;36.47;100772.84;16112693;19;129503;-44
2023/04/14 07:58:07;;;;;;;25.45;2.60;;;;;;;21.25;36.27;100768.63;16109756;19;129657;-43
2023/04/14 08:03:30;;;;;;;26.27;2.22;;;;;;;21.47;36.25;100768.47;16113632;19;129452;-44
2023/04/14 08:08:53;;;;;;;22.42;2.88;;;;;;;21.64;36.17;100769.13;16128960;19;129794;-46
2023/04/14 08:14:15;;;;;;;39.30;4.53;;;;;;;21.72;36.07;100769.75;16128653;19;130833;-45
2023/04/14 08:19:36;;;;;;;48.10;5.00;;;;;;;21.70;36.36;100767.22;16130716;19;130743;-43
2023/04/14 08:24:58;;;;;;;123.47;10.50;;;;;;;21.66;36.53;100763.31;16126526;19;130350;-47
2023/04/14 08:30:20;;;;;;;116.35;11.77;;;;;;;21.57;36.90;100763.00;16125125;19;130532;-43
2023/04/14 08:35:42;;;;;;;100.93;9.85;;;;;;;21.49;37.13;100767.13;16124987;19;129512;-43
2023/04/14 08:41:07;;;;;;;105.47;9.85;;;;;;;21.44;36.98;100755.09;16127992;19;129867;-46
2023/04/14 08:46:30;;;;;;;67.87;7.93;;;;;;;21.34;37.26;100745.59;16126073;19;131335;-44
2023/04/14 08:51:53;;;;;;;64.22;7.43;;;;;;;21.27;37.53;100744.97;16123452;19;129264;-47
2023/04/14 08:57:18;;;;;;;59.95;6.55;;;;;;;21.21;37.43;100741.31;16122981;19;129087;-45
2023/04/14 09:02:41;;;;;;;42.37;5.43;;;;;;;21.14;37.75;100735.16;16122859;19;129999;-45
2023/04/14 09:08:03;;;;;;;46.95;5.50;;;;;;;21.10;37.20;100735.97;16127057;19;129593;-47
2023/04/14 09:13:27;;;;;;;49.58;5.30;;;;;;;21.08;37.45;100724.28;16122817;19;129480;-44
2023/04/14 09:18:50;;;;;;;37.88;4.50;;;;;;;21.13;37.09;100721.50;16121305;19;130240;-45
2023/04/14 09:24:15;;;;;;;103.00;7.07;;;;;;;21.23;37.22;100716.03;16123782;19;129623;-48
2023/04/14 09:29:38;;;;;;;30.77;3.83;;;;;;;21.47;36.33;100716.41;16120997;19;131244;-45
2023/04/14 09:35:00;;;;;;;23.98;2.88;;;;;;;21.73;36.05;100718.50;16117912;19;129405;-45
2023/04/14 09:40:31;;;;;;;25.40;2.72;;;;;;;21.95;35.72;100712.72;16121508;19;129915;-46
2023/04/14 09:45:54;;;;;;;14.75;2.40;;;;;;;22.12;35.23;100715.28;16117258;19;131157;-52
2023/04/14 09:51:19;;;;;;;20.17;3.05;;;;;;;22.19;34.94;100710.28;16123076;19;129225;-46
2023/04/14 09:56:44;;;;;;;17.20;2.70;;;;;;;22.38;34.65;100701.41;16119314;19;133098;-44
2023/04/14 10:02:07;;;;;;;13.10;2.08;;;;;;;22.52;34.32;100691.38;16119567;19;133837;-50
2023/04/14 10:07:30;;;;;;;12.68;2.50;;;;;;;22.64;34.29;100699.47;16115177;19;129710;-44
2023/04/14 10:12:52;;;;;;;13.80;2.00;;;;;;;22.73;34.18;100694.16;16119026;19;130784;-45
2023/04/14 10:18:14;;;;;;;15.90;2.05;;;;;;;22.76;34.27;100682.44;16117424;19;130986;-46
2023/04/14 10:23:38;;;;;;;14.45;2.10;;;;;;;22.76;33.92;100678.84;16117551;19;132520;-45
2023/04/14 10:29:01;;;;;;;18.73;2.72;;;;;;;22.71;34.12;100672.13;16117157;19;129662;-46
2023/04/14 10:34:24;;;;;;;13.18;2.30;;;;;;;22.65;34.28;100656.50;16116825;19;129272;-44
2023/04/14 10:40:05;;;;;;;25.85;2.53;;;;;;;22.54;33.88;100660.44;16121083;19;129813;-45
2023/04/14 10:45:28;;;;;;;14.85;2.70;;;;;;;22.46;34.27;100663.78;16118616;19;130093;-45
2023/04/14 10:50:54;;;;;;;17.63;1.88;;;;;;;22.39;34.27;100659.34;16111513;19;130496;-46
2023/04/14 10:56:20;;;;;;;19.98;1.98;;;;;;;22.29;34.47;100648.16;16110647;19;130657;-44
2023/04/14 11:01:42;;;;;;;17.10;2.10;;;;;;;22.24;34.17;100634.25;16112720;19;129612;-44
2023/04/14 11:07:08;;;;;;;12.32;2.13;;;;;;;22.22;33.72;100645.66;16117191;19;130404;-43
2023/04/14 11:12:30;;;;;;;12.65;2.55;;;;;;;22.19;34.26;100642.56;16114540;19;129673;-44
2023/04/14 11:17:53;;;;;;;25.13;2.90;;;;;;;22.17;34.10;100639.22;16115884;19;130649;-46
2023/04/14 11:23:15;;;;;;;16.98;2.58;;;;;;;22.15;34.17;100642.28;16116848;19;129314;-44
2023/04/14 11:28:39;;;;;;;10.05;1.73;;;;;;;22.13;34.07;100634.22;16120026;19;129347;-43
2023/04/14 11:34:05;;;;;;;9.52;1.52;;;;;;;22.11;34.13;100638.38;16114749;19;129299;-44
2023/04/14 11:39:28;;;;;;;13.10;1.75;;;;;;;22.10;34.16;100629.19;16116374;19;129443;-47
2023/04/14 11:44:58;;;;;;;6.90;0.98;;;;;;;22.14;34.01;100621.09;16129303;19;129764;-45
2023/04/14 11:50:20;;;;;;;6.20;1.48;;;;;;;22.10;34.29;100623.63;16129708;19;129575;-47
2023/04/14 11:55:43;;;;;;;13.13;1.73;;;;;;;22.04;33.07;100621.94;16129997;19;130755;-44
2023/04/14 12:01:05;;;;;;;14.35;1.60;;;;;;;22.00;32.13;100614.41;16129943;19;130219;-47
2023/04/14 12:06:27;;;;;;;11.75;1.02;;;;;;;21.89;31.03;100606.06;16127680;19;130167;-44
2023/04/14 12:11:54;;;;;;;16.40;1.75;;;;;;;21.91;30.50;100603.00;16129295;19;129334;-46
2023/04/14 12:17:18;;;;;;;15.90;1.60;;;;;;;21.87;31.07;100607.44;16125843;19;131182;-47
2023/04/14 12:22:40;;;;;;;24.63;2.10;;;;;;;21.85;30.65;100593.78;16129048;19;129592;-45
2023/04/14 12:28:05;;;;;;;19.83;1.98;;;;;;;21.86;31.26;100605.78;16130596;19;130146;-42
2023/04/14 12:33:28;;;;;;;27.53;1.90;;;;;;;21.93;31.16;100606.31;16125627;19;130286;-50
2023/04/14 12:38:50;;;;;;;37.70;2.53;;;;;;;21.98;31.66;100597.97;16122641;19;131562;-43
2023/04/14 12:44:14;;;;;;;30.67;2.42;;;;;;;22.05;32.08;100587.41;16125241;19;129009;-57
2023/04/14 12:49:37;;;;;;;25.13;1.85;;;;;;;22.10;31.95;100597.69;16122727;19;130896;-50
2023/04/14 12:54:59;;;;;;;24.70;2.45;;;;;;;22.12;32.25;100587.97;16126860;19;130761;-43
2023/04/14 13:00:22;;;;;;;31.48;2.70;;;;;;;22.10;32.46;100581.84;16122588;19;131767;-44
2023/04/14 13:05:44;;;;;;;43.65;5.00;;;;;;;22.05;32.78;100587.41;16124608;19;130902;-44
2023/04/14 13:11:06;;;;;;;74.30;6.43;;;;;;;22.00;32.68;100579.06;16124358;19;133067;-46
2023/04/14 13:16:28;;;;;;;69.03;4.95;;;;;;;21.94;32.72;100577.38;16120439;19;129601;-45
2023/04/14 13:21:50;;;;;;;48.28;4.15;;;;;;;21.92;32.63;100576.81;16120708;19;130708;-45
2023/04/14 13:27:12;;;;;;;119.97;9.48;;;;;;;21.87;33.35;100574.03;16122620;19;129465;-47
2023/04/14 13:32:34;;;;;;;109.30;9.77;;;;;;;21.82;33.53;100575.69;16117188;19;129227;-54
2023/04/14 13:37:57;;;;;;;115.70;9.18;;;;;;;21.78;33.59;100563.44;16118021;19;129615;-54
2023/04/14 13:43:19;;;;;;;66.43;6.63;;;;;;;21.74;33.41;100558.69;16117581;19;130369;-54
2023/04/14 13:48:44;;;;;;;48.70;4.15;;;;;;;21.70;33.66;100563.97;16119934;19;130678;-55
2023/04/14 13:54:05;;;;;;;53.27;4.67;;;;;;;21.66;33.71;100560.91;16126111;19;131739;-52
2023/04/14 13:59:27;;;;;;;61.47;5.65;;;;;;;21.65;33.75;100550.06;16119162;19;129473;-49
2023/04/14 14:04:49;;;;;;;77.55;7.05;;;;;;;21.66;33.87;100547.00;16118687;19;131932;-53
2023/04/14 14:10:11;;;;;;;95.97;9.82;;;;;;;21.63;34.48;100538.38;16122409;19;129102;-48
2023/04/14 14:15:33;;;;;;;143.68;11.80;;;;;;;21.64;34.21;100534.47;16116685;19;129543;-51
2023/04/14 14:20:55;;;;;;;125.35;12.40;;;;;;;21.62;34.67;100526.38;16121723;19;129291;-50
2023/04/14 14:26:17;;;;;;;97.10;10.30;;;;;;;21.60;34.72;100520.25;16120519;19;129558;-43
2023/04/14 14:31:39;;;;;;;90.53;8.00;;;;;;;21.60;34.98;100519.44;16120318;19;130919;-56
2023/04/14 14:37:01;;;;;;;76.60;8.35;;;;;;;21.58;35.32;100522.50;16118880;19;130619;-54
2023/04/14 14:42:22;;;;;;;54.60;6.13;;;;;;;21.58;35.39;100518.88;16115710;19;129830;-42
2023/04/14 14:47:45;;;;;;;58.75;7.25;;;;;;;21.55;35.19;100514.69;16117901;19;132062;-43
2023/04/14 14:53:06;;;;;;;54.15;6.00;;;;;;;21.55;35.41;100509.13;16119118;19;135631;-44
2023/04/14 14:58:29;;;;;;;61.75;5.68;;;;;;;21.50;35.28;100509.97;16112712;19;130429;-42
2023/04/14 15:03:53;;;;;;;34.25;4.55;;;;;;;21.47;35.09;100507.69;16118449;19;129346;-41
2023/04/14 15:09:15;;;;;;;36.58;4.68;;;;;;;21.40;34.51;100512.69;16111107;19;131921;-41
2023/04/14 15:14:37;;;;;;;20.58;2.90;;;;;;;21.33;32.86;100512.09;16115833;19;130162;-40
2023/04/14 15:20:03;;;;;;;28.55;3.00;;;;;;;21.30;32.36;100495.97;16128131;19;129608;-41
2023/04/14 15:25:25;;;;;;;17.95;2.45;;;;;;;21.27;32.06;100499.31;16128561;19;130090;-42
2023/04/14 15:30:47;;;;;;;12.73;2.22;;;;;;;21.20;31.92;100494.00;16129460;19;130480;-43
2023/04/14 15:36:10;;;;;;;19.77;2.38;;;;;;;21.17;31.46;100494.56;16127607;19;131042;-42
2023/04/14 15:41:31;;;;;;;19.20;2.40;;;;;;;21.16;30.99;100502.06;16127859;19;130190;-42
2023/04/14 15:46:53;;;;;;;19.55;2.53;;;;;;;21.15;31.21;100489.28;16126045;19;130698;-47
2023/04/14 15:52:15;;;;;;;24.20;2.72;;;;;;;21.17;31.67;100498.16;16124442;19;129692;-42
2023/04/14 15:57:37;;;;;;;31.65;3.15;;;;;;;21.18;31.54;100494.25;16121481;19;129530;-43
2023/04/14 16:03:00;;;;;;;56.67;5.82;;;;;;;21.18;31.92;100491.47;16121888;19;131102;-43
2023/04/14 16:08:22;;;;;;;29.77;4.15;;;;;;;21.17;31.59;100492.59;16121773;19;129822;-47
2023/04/14 16:13:44;;;;;;;29.65;4.03;;;;;;;21.18;31.78;100490.66;16123634;19;129436;-45
2023/04/14 16:19:07;;;;;;;27.25;2.92;;;;;;;21.20;32.22;100489.28;16124603;19;133159;-44
2023/04/14 16:24:29;;;;;;;16.05;2.53;;;;;;;21.21;32.04;100479.00;16117925;19;130183;-43
2023/04/14 16:29:51;;;;;;;18.27;2.45;;;;;;;21.21;32.28;100482.59;16127454;19;130439;-45
2023/04/14 16:35:13;;;;;;;21.13;2.40;;;;;;;21.19;32.73;100487.59;16119172;19;130173;-46
2023/04/14 16:40:36;;;;;;;21.02;2.38;;;;;;;21.18;32.57;100488.69;16116124;19;129338;-48
2023/04/14 16:46:02;;;;;;;15.43;1.98;;;;;;;21.17;32.64;100491.78;16123024;19;130140;-48
2023/04/14 16:51:26;;;;;;;13.30;1.90;;;;;;;21.12;32.99;100492.59;16120161;19;131040;-46
2023/04/14 16:56:48;;;;;;;16.17;1.92;;;;;;;21.09;32.80;100492.31;16117987;19;131258;-48
2023/04/14 17:02:09;;;;;;;23.73;2.15;;;;;;;21.03;32.90;100491.47;16117734;19;129232;-47
2023/04/14 17:07:32;;;;;;;10.50;1.80;;;;;;;20.97;33.18;100493.41;16120950;19;130158;-44
2023/04/14 17:12:54;;;;;;;18.13;1.90;;;;;;;20.94;33.35;100496.72;16120000;19;130127;-45
2023/04/14 17:18:16;;;;;;;13.10;1.70;;;;;;;20.88;33.39;100490.28;16119550;19;129976;-47
2023/04/14 17:23:38;;;;;;;14.23;1.38;;;;;;;20.85;33.51;100509.47;16114951;19;130735;-49
2023/04/14 17:29:00;;;;;;;14.88;1.67;;;;;;;20.80;33.92;100507.47;16115273;19;130457;-45
2023/04/14 17:34:22;;;;;;;10.88;1.50;;;;;;;20.76;33.76;100506.38;16113627;19;130522;-43
2023/04/14 17:39:45;;;;;;;9.60;1.83;;;;;;;20.68;34.04;100512.41;16112603;19;130353;-45
2023/04/14 17:45:07;;;;;;;8.85;1.20;;;;;;;20.66;34.45;100512.69;16112695;19;134379;-48
2023/04/14 17:50:29;;;;;;;17.38;2.15;;;;;;;20.69;34.62;100512.16;16114114;19;129828;-46
2023/04/14 17:55:52;;;;;;;10.02;1.55;;;;;;;20.75;34.89;100521.34;16117349;19;129499;-48
2023/04/14 18:01:39;;;;;;;7.13;1.10;;;;;;;20.82;34.54;100518.34;16193837;19;129882;-44
2023/04/14 18:07:01;;;;;;;6.05;0.90;;;;;;;20.90;35.03;100518.66;16192657;19;129752;-42
2023/04/14 18:12:24;;;;;;;4.72;1.00;;;;;;;20.99;34.83;100527.31;16188845;19;131538;-44
2023/04/14 18:17:45;;;;;;;10.30;1.15;;;;;;;21.08;34.80;100530.41;16192624;19;129578;-46
2023/04/14 18:23:07;;;;;;;6.90;0.90;;;;;;;21.13;34.73;100524.00;16184743;19;129797;-44
2023/04/14 18:28:30;;;;;;;4.88;0.77;;;;;;;21.17;34.88;100527.94;16188761;19;129854;-44
2023/04/14 18:33:52;;;;;;;3.25;0.98;;;;;;;21.18;35.04;100527.66;16187832;19;130918;-47
2023/04/14 18:39:15;;;;;;;5.25;1.25;;;;;;;21.17;35.00;100523.19;16187724;19;129170;-42
2023/04/14 18:44:37;;;;;;;6.05;0.75;;;;;;;21.15;34.76;100533.78;16189436;19;130256;-44
2023/04/14 18:49:59;;;;;;;5.35;0.75;;;;;;;21.10;34.74;100546.84;16189515;19;130533;-42
2023/04/14 18:55:21;;;;;;;9.13;0.80;;;;;;;21.03;35.04;100549.88;16186269;19;131977;-43
2023/04/14 19:00:46;;;;;;;5.15;0.60;;;;;;;20.98;35.00;100563.75;16193099;19;129772;-42
2023/04/14 19:06:07;;;;;;;5.27;0.77;;;;;;;20.90;35.45;100560.38;16188715;19;129759;-43
2023/04/14 19:11:34;;;;;;;4.65;0.63;;;;;;;20.85;35.17;100570.63;16138959;19;129504;-41
2023/04/14 19:16:56;;;;;;;6.20;0.75;;;;;;;20.80;35.60;100574.19;16127281;19;129371;-41
2023/04/14 19:22:18;;;;;;;4.90;0.73;;;;;;;20.76;35.72;100581.44;16125818;19;129826;-43
2023/04/14 19:27:41;;;;;;;5.57;0.60;;;;;;;20.71;35.09;100585.00;16122961;19;129742;-42
2023/04/14 19:33:03;;;;;;;7.72;1.08;;;;;;;20.65;35.65;100582.44;16123098;19;129607;-42
2023/04/14 19:38:26;;;;;;;16.40;1.35;;;;;;;20.60;35.79;100586.84;16118673;19;131090;-45
2023/04/14 19:43:48;;;;;;;11.52;1.10;;;;;;;20.60;35.74;100597.97;16123568;19;130384;-43
2023/04/14 19:49:10;;;;;;;10.00;1.13;;;;;;;20.58;36.17;100597.41;16119038;19;129567;-42
2023/04/14 19:54:32;;;;;;;7.30;0.80;;;;;;;20.64;36.08;100597.44;16120638;19;130217;-43
2023/04/14 19:59:54;;;;;;;18.83;1.20;;;;;;;20.75;36.00;100596.41;16114911;19;129546;-42
2023/04/14 20:05:16;;;;;;;4.47;0.80;;;;;;;20.88;35.87;100593.19;16121289;19;130395;-44
2023/04/14 20:10:39;;;;;;;4.13;1.00;;;;;;;20.98;35.76;100597.09;16115913;19;130558;-41
2023/04/14 20:16:00;;;;;;;11.18;1.08;;;;;;;21.03;36.12;100586.84;16116263;19;130208;-43
2023/04/14 20:21:23;;;;;;;45.58;4.15;;;;;;;21.07;36.26;100592.69;16104723;19;130112;-43
2023/04/14 20:26:45;;;;;;;12.20;1.40;;;;;;;21.08;35.99;100586.03;16114482;19;131478;-42
2023/04/14 20:32:08;;;;;;;4.97;1.02;;;;;;;21.05;36.45;100581.84;16110430;19;130794;-42
2023/04/14 20:37:30;;;;;;;13.30;1.25;;;;;;;21.05;36.39;100597.69;16118637;19;130588;-44
2023/04/14 20:42:53;;;;;;;8.45;1.10;;;;;;;21.03;36.35;100583.25;16119226;19;130435;-44
2023/04/14 20:48:15;;;;;;;7.88;0.95;;;;;;;21.01;36.52;100591.00;16116609;19;129796;-44
2023/04/14 20:53:37;;;;;;;6.30;1.00;;;;;;;20.96;36.63;100586.25;16094243;19;131353;-43
2023/04/14 20:58:58;;;;;;;9.93;1.20;;;;;;;20.91;36.56;100586.22;16110002;19;130883;-44
2023/04/14 21:04:21;;;;;;;2.47;0.73;;;;;;;20.87;36.92;100585.94;16112535;19;129888;-46
2023/04/14 21:09:43;;;;;;;7.32;0.88;;;;;;;20.84;36.93;100592.03;16116450;19;129430;-41
2023/04/14 21:15:05;;;;;;;14.23;1.95;;;;;;;20.81;37.33;100587.00;16115682;19;129758;-42
2023/04/14 21:20:47;;;;;;;9.25;1.15;;;;;;;20.78;37.08;100578.38;16114922;19;131702;-43
2023/04/14 21:26:10;;;;;;;7.50;0.95;;;;;;;20.75;37.03;100580.56;16110429;19;130143;-45
2023/04/14 21:31:32;;;;;;;10.02;1.10;;;;;;;20.74;37.38;100578.03;16111079;19;130456;-45
2023/04/14 21:36:56;;;;;;;10.05;1.65;;;;;;;20.72;37.39;100580.25;16114334;19;130669;-43
2023/04/14 21:42:18;;;;;;;6.20;1.13;;;;;;;20.65;37.16;100582.44;16105314;19;130575;-43
2023/04/14 21:47:40;;;;;;;15.32;1.33;;;;;;;20.59;37.18;100587.97;16107730;19;130745;-43
2023/04/14 21:53:02;;;;;;;6.32;0.93;;;;;;;20.53;37.07;100591.81;16113342;19;135411;-43
2023/04/14 21:58:24;;;;;;;7.75;1.08;;;;;;;20.50;37.01;100581.25;16111714;19;130911;-43
2023/04/14 22:03:46;;;;;;;4.82;0.95;;;;;;;20.46;36.77;100582.88;16111556;19;130150;-42
2023/04/14 22:09:08;;;;;;;8.18;1.20;;;;;;;20.42;36.94;100584.53;16111094;19;129772;-42
2023/04/14 22:14:30;;;;;;;10.90;1.30;;;;;;;20.38;37.01;100588.94;16108172;19;130078;-45
2023/04/14 22:19:52;;;;;;;3.88;0.90;;;;;;;20.34;36.50;100585.84;16110835;19;131163;-44
2023/04/14 22:25:15;;;;;;;10.30;1.35;;;;;;;20.30;36.44;100593.03;16109457;19;129850;-46
2023/04/14 22:30:37;;;;;;;3.95;0.90;;;;;;;20.26;36.77;100597.44;16109833;19;129872;-42
2023/04/14 22:36:02;;;;;;;8.63;1.08;;;;;;;20.22;36.37;100591.59;16106380;19;130469;-43
2023/04/14 22:41:24;;;;;;;9.73;0.70;;;;;;;20.18;36.34;100590.47;16113439;19;129931;-43
2023/04/14 22:46:46;;;;;;;3.90;1.13;;;;;;;20.16;36.23;100584.31;16121333;19;129954;-42
2023/04/14 22:52:07;;;;;;;2.28;0.90;;;;;;;20.13;36.13;100587.63;16123161;19;129818;-44
2023/04/14 22:57:29;;;;;;;3.33;0.85;;;;;;;20.10;36.23;100590.94;16124829;19;129700;-44
2023/04/14 23:02:52;;;;;;;2.47;1.05;;;;;;;20.08;36.53;100587.56;16125130;19;132003;-47
2023/04/14 23:08:14;;;;;;;3.28;0.80;;;;;;;20.03;36.02;100582.81;16125916;19;129594;-42
2023/04/14 23:13:36;;;;;;;7.45;0.73;;;;;;;20.02;36.19;100583.09;16125581;19;129427;-42
2023/04/14 23:18:58;;;;;;;2.17;0.57;;;;;;;20.01;36.30;100584.19;16121509;19;130907;-45
2023/04/14 23:24:21;;;;;;;5.07;0.82;;;;;;;20.01;36.24;100584.19;16125918;19;131308;-46
2023/04/14 23:29:42;;;;;;;2.17;0.85;;;;;;;20.02;35.83;100594.19;16124670;19;130134;-45
2023/04/14 23:35:05;;;;;;;2.40;0.90;;;;;;;19.99;36.02;100596.41;16122553;19;130760;-44
2023/04/14 23:40:29;;;;;;;1.60;0.77;;;;;;;19.98;35.74;100594.69;16123670;19;129370;-43
2023/04/14 23:45:51;;;;;;;2.90;0.85;;;;;;;19.94;35.62;100596.31;16124322;19;129574;-45
2023/04/14 23:51:13;;;;;;;1.55;0.50;;;;;;;19.92;36.12;100604.09;16120285;19;129329;-43
2023/04/14 23:56:42;;;;;;;1.23;0.57;;;;;;;19.89;35.87;100596.28;16121823;19;130804;-45
